Time;durP1;ratioP1;P1;durP2;ratioP2;P2;SDS_P1;SDS_P2;PMS_P1;PMS_P2;Temp;Humidity;BMP_temperature;BMP_pressure;BME280_temperature;BME280_humidity;BME280_pressure;Samples;Min_cycle;Max_cycle;Signal;HPM_P1;HPM_P2
2023/07/19 00:00:35;;;;;;;26.70;11.05;;;;;;;;;;4843094;29;20499;-71
2023/07/19 00:04:15;;;;;;;30.52;11.18;;;;;;;;;;4848890;29;20050;-70
2023/07/19 00:07:57;;;;;;;26.70;11.55;;;;;;;;;;4844644;29;20868;-71
2023/07/19 00:11:37;;;;;;;19.65;10.13;;;;;;;;;;4850437;29;20067;-71
2023/07/19 00:15:17;;;;;;;20.23;10.40;;;;;;;;;;4845046;29;20117;-71
2023/07/19 00:18:58;;;;;;;20.52;11.40;;;;;;;;;;4845969;29;20554;-72
2023/07/19 00:22:35;;;;;;;27.45;10.82;;;;;;;;;;4843400;29;20098;-71
2023/07/19 00:25:41;;;;;;;24.63;10.70;;;;;;;;;;4826233;29;20050;-70
2023/07/19 00:28:49;;;;;;;25.85;11.45;;;;;;;;;;4843853;29;20049;-71
2023/07/19 00:31:15;;;;;;;28.35;11.60;;;;;;;;;;4827856;29;20514;-71
2023/07/19 00:34:21;;;;;;;21.88;10.57;;;;;;;;;;4845461;29;20077;-72
2023/07/19 00:38:02;;;;;;;23.02;11.05;;;;;;;;;;4842222;29;20045;-71
2023/07/19 00:41:42;;;;;;;21.45;10.85;;;;;;;;;;4845856;29;20619;-72
2023/07/19 00:45:22;;;;;;;21.38;10.25;;;;;;;;;;4843716;29;20056;-70
2023/07/19 00:49:02;;;;;;;27.85;11.18;;;;;;;;;;4844340;29;20042;-71
2023/07/19 00:52:43;;;;;;;22.65;10.35;;;;;;;;;;4844000;29;20041;-70
2023/07/19 00:56:23;;;;;;;28.40;11.38;;;;;;;;;;4846304;29;20093;-73
2023/07/19 01:00:04;;;;;;;23.98;11.27;;;;;;;;;;4850728;29;20049;-72
2023/07/19 01:03:44;;;;;;;26.23;10.77;;;;;;;;;;4848753;29;20046;-72
2023/07/19 01:07:24;;;;;;;23.90;11.63;;;;;;;;;;4850710;29;20049;-71
2023/07/19 01:11:07;;;;;;;28.65;12.85;;;;;;;;;;4850031;29;20093;-70
2023/07/19 01:14:48;;;;;;;22.55;12.25;;;;;;;;;;4851015;29;20092;-71
2023/07/19 01:18:28;;;;;;;24.33;11.77;;;;;;;;;;4844577;29;20483;-70
2023/07/19 01:22:08;;;;;;;23.42;11.52;;;;;;;;;;4845004;29;20066;-71
2023/07/19 01:25:49;;;;;;;26.40;10.40;;;;;;;;;;4851915;29;20379;-70
2023/07/19 01:29:29;;;;;;;23.10;11.68;;;;;;;;;;4844810;29;20042;-71
2023/07/19 01:33:09;;;;;;;27.45;11.63;;;;;;;;;;4846956;29;20604;-70
2023/07/19 01:36:51;;;;;;;21.73;10.18;;;;;;;;;;4854219;29;20048;-70
2023/07/19 01:40:31;;;;;;;24.50;11.65;;;;;;;;;;4849148;29;20041;-69
2023/07/19 01:44:12;;;;;;;27.20;11.93;;;;;;;;;;4846339;29;20057;-69
2023/07/19 01:47:52;;;;;;;21.95;10.95;;;;;;;;;;4852533;29;20049;-69
2023/07/19 01:51:33;;;;;;;28.33;11.25;;;;;;;;;;4849976;29;20418;-69
2023/07/19 01:55:13;;;;;;;22.63;9.98;;;;;;;;;;4850688;29;20145;-69
2023/07/19 01:58:53;;;;;;;22.25;11.63;;;;;;;;;;4847767;29;20079;-71
2023/07/19 02:02:34;;;;;;;28.50;12.10;;;;;;;;;;4841641;29;20978;-70
2023/07/19 02:06:17;;;;;;;25.52;10.80;;;;;;;;;;4848881;29;20077;-69
2023/07/19 02:09:57;;;;;;;25.00;11.00;;;;;;;;;;4843295;29;20401;-70
2023/07/19 02:13:38;;;;;;;26.13;11.80;;;;;;;;;;4845010;29;20046;-70
2023/07/19 02:17:18;;;;;;;24.98;11.60;;;;;;;;;;4848696;29;20597;-69
2023/07/19 02:20:58;;;;;;;26.42;10.80;;;;;;;;;;4851319;29;20045;-70
2023/07/19 02:24:39;;;;;;;21.88;11.18;;;;;;;;;;4848931;29;20514;-71
2023/07/19 02:28:02;;;;;;;22.58;12.02;;;;;;;;;;4841738;29;20058;-70
2023/07/19 02:31:42;;;;;;;21.42;10.95;;;;;;;;;;4847460;29;20064;-69
2023/07/19 02:35:23;;;;;;;23.67;12.07;;;;;;;;;;4841505;29;20046;-69
2023/07/19 02:39:04;;;;;;;26.80;11.63;;;;;;;;;;4849421;29;20517;-71
2023/07/19 02:42:43;;;;;;;28.70;11.77;;;;;;;;;;4840068;29;20045;-70
2023/07/19 02:46:24;;;;;;;26.65;11.55;;;;;;;;;;4848447;29;20057;-69
2023/07/19 02:50:04;;;;;;;23.55;11.50;;;;;;;;;;4842296;29;20058;-70
2023/07/19 02:53:44;;;;;;;28.90;12.52;;;;;;;;;;4853400;29;20517;-70
2023/07/19 02:57:25;;;;;;;26.70;12.38;;;;;;;;;;4850686;29;20141;-70
2023/07/19 03:01:06;;;;;;;22.73;12.20;;;;;;;;;;4849028;29;20073;-72
2023/07/19 03:04:46;;;;;;;24.23;12.70;;;;;;;;;;4844063;29;20076;-69
2023/07/19 03:08:27;;;;;;;21.75;11.10;;;;;;;;;;4842476;29;20451;-70
2023/07/19 03:12:07;;;;;;;22.52;12.15;;;;;;;;;;4844800;29;20120;-72
2023/07/19 03:15:48;;;;;;;25.83;12.40;;;;;;;;;;4850861;29;20045;-71
2023/07/19 03:19:28;;;;;;;23.23;12.00;;;;;;;;;;4843398;29;20054;-71
2023/07/19 03:22:28;;;;;;;22.70;12.75;;;;;;;;;;4846176;29;20137;-71
2023/07/19 03:24:54;;;;;;;23.65;11.43;;;;;;;;;;4853444;29;20121;-72
2023/07/19 03:28:00;;;;;;;26.77;13.07;;;;;;;;;;4852440;29;20065;-70
2023/07/19 03:31:40;;;;;;;28.75;11.88;;;;;;;;;;4839107;29;20058;-74
2023/07/19 03:35:21;;;;;;;24.42;13.35;;;;;;;;;;4852453;29;20045;-69
2023/07/19 03:39:03;;;;;;;27.00;14.13;;;;;;;;;;4851481;29;20102;-71
2023/07/19 03:42:41;;;;;;;35.42;13.93;;;;;;;;;;4847126;29;20037;-71
2023/07/19 03:46:22;;;;;;;22.10;12.00;;;;;;;;;;4848050;29;20053;-73
2023/07/19 03:50:02;;;;;;;25.27;13.05;;;;;;;;;;4857254;29;20066;-70
2023/07/19 03:53:42;;;;;;;28.23;13.57;;;;;;;;;;4845155;29;20081;-71
2023/07/19 03:57:23;;;;;;;28.38;12.73;;;;;;;;;;4842706;29;20066;-73
2023/07/19 04:01:03;;;;;;;25.40;12.18;;;;;;;;;;4846262;29;20612;-69
2023/07/19 04:04:43;;;;;;;25.35;12.90;;;;;;;;;;4852242;29;20054;-69
2023/07/19 04:08:24;;;;;;;20.85;11.73;;;;;;;;;;4851828;29;20106;-71
2023/07/19 04:12:04;;;;;;;19.77;11.60;;;;;;;;;;4839028;29;20499;-70
2023/07/19 04:15:44;;;;;;;21.23;12.07;;;;;;;;;;4839845;29;20057;-70
2023/07/19 04:19:25;;;;;;;26.67;11.40;;;;;;;;;;4846181;29;20426;-71
2023/07/19 04:23:05;;;;;;;22.20;12.10;;;;;;;;;;4841523;29;20052;-71
2023/07/19 04:26:46;;;;;;;20.90;10.73;;;;;;;;;;4850765;29;20738;-72
2023/07/19 04:30:26;;;;;;;22.73;12.50;;;;;;;;;;4839144;29;20061;-71
2023/07/19 04:34:06;;;;;;;24.33;12.60;;;;;;;;;;4848209;29;20075;-71
2023/07/19 04:37:47;;;;;;;25.55;12.93;;;;;;;;;;4840130;29;20052;-71
2023/07/19 04:41:27;;;;;;;30.65;12.35;;;;;;;;;;4837424;29;20521;-71
2023/07/19 04:45:08;;;;;;;29.48;13.38;;;;;;;;;;4852205;29;20092;-72
2023/07/19 04:48:48;;;;;;;30.02;12.40;;;;;;;;;;4839932;29;20053;-71
2023/07/19 04:52:28;;;;;;;23.85;11.75;;;;;;;;;;4843915;29;20045;-73
2023/07/19 04:56:11;;;;;;;25.33;12.27;;;;;;;;;;4846513;29;20050;-69
2023/07/19 04:59:51;;;;;;;24.73;12.48;;;;;;;;;;4846689;29;20096;-71
2023/07/19 05:03:32;;;;;;;24.23;11.50;;;;;;;;;;4840820;29;20045;-70
2023/07/19 05:07:12;;;;;;;26.42;12.35;;;;;;;;;;4842449;29;20068;-73
2023/07/19 05:10:55;;;;;;;23.75;12.90;;;;;;;;;;4842975;29;20045;-71
2023/07/19 05:14:35;;;;;;;24.95;12.48;;;;;;;;;;4852247;29;20391;-72
2023/07/19 05:18:16;;;;;;;23.50;11.60;;;;;;;;;;4845182;29;20124;-72
2023/07/19 05:21:56;;;;;;;24.58;11.52;;;;;;;;;;4846841;29;20067;-74
2023/07/19 05:24:57;;;;;;;32.88;11.65;;;;;;;;;;4857852;29;20117;-70
2023/07/19 05:27:24;;;;;;;28.38;11.60;;;;;;;;;;4853626;29;20426;-71
2023/07/19 05:29:50;;;;;;;25.65;11.40;;;;;;;;;;4853632;29;20410;-73
2023/07/19 05:32:16;;;;;;;28.85;12.23;;;;;;;;;;4840242;29;20060;-72
2023/07/19 05:35:22;;;;;;;30.23;11.18;;;;;;;;;;4848669;29;20053;-70
2023/07/19 05:38:22;;;;;;;38.08;13.75;;;;;;;;;;4850123;29;20046;-73
2023/07/19 05:41:28;;;;;;;30.55;14.27;;;;;;;;;;4849633;29;20073;-72
2023/07/19 05:45:09;;;;;;;31.20;14.75;;;;;;;;;;4849129;29;20061;-71
2023/07/19 05:48:49;;;;;;;30.35;15.23;;;;;;;;;;4854900;29;20359;-70
2023/07/19 05:52:29;;;;;;;32.47;16.95;;;;;;;;;;4848845;29;20132;-70
2023/07/19 05:56:10;;;;;;;42.10;19.17;;;;;;;;;;4847321;29;20042;-70
2023/07/19 05:59:50;;;;;;;42.05;19.90;;;;;;;;;;4853747;29;20061;-70
2023/07/19 06:03:30;;;;;;;38.30;18.83;;;;;;;;;;4843801;29;20065;-73
2023/07/19 06:07:11;;;;;;;37.05;17.20;;;;;;;;;;4843254;29;20513;-71
2023/07/19 06:10:51;;;;;;;34.15;17.45;;;;;;;;;;4851433;29;20125;-70
2023/07/19 06:14:31;;;;;;;38.22;16.88;;;;;;;;;;4845928;29;20482;-73
2023/07/19 06:18:12;;;;;;;38.22;17.50;;;;;;;;;;4845061;29;20068;-70
2023/07/19 06:21:54;;;;;;;42.08;17.40;;;;;;;;;;4848196;29;20495;-70
2023/07/19 06:25:19;;;;;;;36.63;18.17;;;;;;;;;;4840539;29;20053;-70
2023/07/19 06:28:28;;;;;;;31.65;17.15;;;;;;;;;;4845633;29;20066;-69
2023/07/19 06:32:08;;;;;;;32.03;15.70;;;;;;;;;;4843462;29;20659;-70
2023/07/19 06:35:51;;;;;;;41.10;15.75;;;;;;;;;;4846007;29;20140;-71
2023/07/19 06:39:30;;;;;;;36.42;16.05;;;;;;;;;;4848754;29;20084;-72
2023/07/19 06:43:09;;;;;;;33.97;17.50;;;;;;;;;;4843421;29;20049;-73
2023/07/19 06:46:50;;;;;;;41.70;18.92;;;;;;;;;;4850566;29;20053;-72
2023/07/19 06:50:30;;;;;;;33.63;18.75;;;;;;;;;;4857321;29;20057;-71
2023/07/19 06:54:10;;;;;;;40.95;19.38;;;;;;;;;;4844465;29;20050;-70
2023/07/19 06:57:51;;;;;;;39.65;17.55;;;;;;;;;;4845186;29;20734;-75
2023/07/19 07:01:36;;;;;;;31.23;17.38;;;;;;;;;;4849397;29;20050;-75
2023/07/19 07:04:31;;;;;;;44.15;20.27;;;;;;;;;;4847538;29;20091;-79
2023/07/19 07:07:37;;;;;;;37.92;17.98;;;;;;;;;;4845325;29;20375;-76
2023/07/19 07:11:16;;;;;;;39.65;18.58;;;;;;;;;;4848003;29;20045;-77
2023/07/19 07:14:57;;;;;;;41.53;18.33;;;;;;;;;;4853632;29;20058;-77
2023/07/19 07:18:39;;;;;;;32.85;17.85;;;;;;;;;;4848800;29;20058;-75
2023/07/19 07:22:19;;;;;;;35.88;17.63;;;;;;;;;;4843156;29;20058;-72
2023/07/19 07:24:54;;;;;;;36.17;17.08;;;;;;;;;;4841483;29;20042;-71
2023/07/19 07:27:20;;;;;;;41.65;17.80;;;;;;;;;;4818642;29;20062;-73
2023/07/19 07:30:26;;;;;;;32.35;16.55;;;;;;;;;;4850596;29;20057;-75
2023/07/19 07:34:06;;;;;;;35.97;16.67;;;;;;;;;;4847579;29;20041;-76
2023/07/19 07:37:47;;;;;;;42.88;16.88;;;;;;;;;;4841685;29;20062;-74
2023/07/19 07:41:27;;;;;;;35.60;16.60;;;;;;;;;;4839858;29;20053;-75
2023/07/19 07:45:08;;;;;;;30.33;16.73;;;;;;;;;;4852285;29;20054;-77
2023/07/19 07:48:48;;;;;;;25.15;15.02;;;;;;;;;;4853808;29;20056;-72
2023/07/19 07:52:28;;;;;;;33.53;16.98;;;;;;;;;;4852426;29;20060;-77
2023/07/19 07:55:53;;;;;;;29.25;15.82;;;;;;;;;;4845762;29;20118;-74
2023/07/19 07:59:33;;;;;;;30.05;16.95;;;;;;;;;;4850234;29;20421;-73
2023/07/19 08:03:14;;;;;;;30.02;16.10;;;;;;;;;;4839994;29;20460;-74
2023/07/19 08:06:54;;;;;;;31.42;16.30;;;;;;;;;;4840791;29;20367;-75
2023/07/19 08:10:34;;;;;;;35.00;15.90;;;;;;;;;;4845962;29;20534;-74
2023/07/19 08:14:14;;;;;;;27.40;15.70;;;;;;;;;;4847827;29;20765;-72
2023/07/19 08:17:55;;;;;;;33.08;15.68;;;;;;;;;;4840544;29;20064;-69
2023/07/19 08:21:35;;;;;;;28.30;14.93;;;;;;;;;;4834134;29;20578;-70
2023/07/19 08:25:16;;;;;;;31.58;14.82;;;;;;;;;;4845525;29;20053;-70
2023/07/19 08:28:56;;;;;;;28.38;14.35;;;;;;;;;;4838169;29;20133;-72
2023/07/19 08:32:37;;;;;;;32.45;13.80;;;;;;;;;;4843201;29;20112;-71
2023/07/19 08:36:17;;;;;;;24.85;13.45;;;;;;;;;;4837283;29;20057;-70
2023/07/19 08:39:57;;;;;;;26.02;14.02;;;;;;;;;;4838180;29;20076;-69
2023/07/19 08:43:37;;;;;;;31.75;12.90;;;;;;;;;;4844444;29;20148;-72
2023/07/19 08:47:18;;;;;;;20.05;13.05;;;;;;;;;;4842678;29;20076;-72
2023/07/19 08:50:58;;;;;;;28.25;12.45;;;;;;;;;;4849719;29;20063;-75
2023/07/19 08:54:39;;;;;;;23.02;12.40;;;;;;;;;;4844367;29;20381;-76
2023/07/19 08:58:21;;;;;;;23.25;11.73;;;;;;;;;;4840616;29;20193;-72
2023/07/19 09:02:02;;;;;;;24.10;12.70;;;;;;;;;;4841244;29;20057;-72
2023/07/19 09:05:48;;;;;;;26.05;11.88;;;;;;;;;;4841764;29;20649;-69
2023/07/19 09:09:29;;;;;;;25.02;11.82;;;;;;;;;;4838524;29;20874;-71
2023/07/19 09:13:11;;;;;;;28.50;12.10;;;;;;;;;;4843433;29;20494;-74
2023/07/19 09:16:51;;;;;;;24.58;12.23;;;;;;;;;;4847228;29;20073;-74
2023/07/19 09:20:31;;;;;;;26.23;11.88;;;;;;;;;;4841391;29;20054;-71
2023/07/19 09:23:36;;;;;;;28.23;11.52;;;;;;;;;;4837560;29;20063;-73
2023/07/19 09:26:06;;;;;;;26.55;12.82;;;;;;;;;;4837796;29;20221;-72
2023/07/19 09:28:34;;;;;;;25.20;13.00;;;;;;;;;;4845326;29;20596;-71
2023/07/19 09:31:03;;;;;;;29.33;11.70;;;;;;;;;;4838198;29;20506;-74
2023/07/19 09:33:29;;;;;;;31.33;11.85;;;;;;;;;;4852413;29;20149;-71
2023/07/19 09:36:38;;;;;;;26.15;12.18;;;;;;;;;;4852943;29;20186;-76
2023/07/19 09:39:40;;;;;;;29.35;12.52;;;;;;;;;;4848516;29;20129;-74
2023/07/19 09:42:08;;;;;;;27.48;11.77;;;;;;;;;;4848505;29;20065;-75
2023/07/19 09:44:36;;;;;;;25.55;11.27;;;;;;;;;;4837064;29;20064;-75
2023/07/19 09:47:02;;;;;;;22.88;11.40;;;;;;;;;;4853120;29;20057;-73
2023/07/19 09:49:28;;;;;;;27.40;10.75;;;;;;;;;;4850671;29;20049;-69
2023/07/19 09:51:56;;;;;;;26.60;9.93;;;;;;;;;;4852143;29;20053;-70
2023/07/19 09:54:24;;;;;;;21.45;9.15;;;;;;;;;;4855274;29;20096;-69
2023/07/19 09:56:51;;;;;;;26.98;9.27;;;;;;;;;;4848722;29;20058;-74
2023/07/19 09:59:27;;;;;;;20.90;8.07;;;;;;;;;;4852084;29;20061;-73
2023/07/19 10:02:33;;;;;;;22.13;7.75;;;;;;;;;;4849711;29;20050;-71
2023/07/19 10:06:14;;;;;;;23.25;7.85;;;;;;;;;;4847757;29;20128;-73
2023/07/19 10:09:57;;;;;;;29.20;7.60;;;;;;;;;;4850388;29;20064;-72
2023/07/19 10:13:37;;;;;;;18.65;7.25;;;;;;;;;;4848629;29;20069;-71
2023/07/19 10:17:18;;;;;;;24.65;7.80;;;;;;;;;;4852706;29;20053;-75
2023/07/19 10:20:58;;;;;;;16.40;6.75;;;;;;;;;;4847085;29;20045;-73
2023/07/19 10:24:41;;;;;;;27.15;7.43;;;;;;;;;;4851624;29;20049;-71
2023/07/19 10:28:29;;;;;;;19.48;6.47;;;;;;;;;;4845683;29;20129;-72
2023/07/19 10:32:08;;;;;;;19.45;6.35;;;;;;;;;;4853980;29;20086;-71
2023/07/19 10:35:51;;;;;;;21.95;6.45;;;;;;;;;;4851163;29;20085;-72
2023/07/19 10:39:31;;;;;;;22.05;7.28;;;;;;;;;;4849944;29;20061;-72
2023/07/19 10:43:12;;;;;;;15.43;7.28;;;;;;;;;;4839880;29;20069;-72
2023/07/19 10:46:52;;;;;;;17.23;7.95;;;;;;;;;;4844736;29;20143;-71
2023/07/19 10:50:32;;;;;;;21.73;8.52;;;;;;;;;;4850456;29;20053;-71
2023/07/19 10:54:20;;;;;;;24.42;8.85;;;;;;;;;;4851458;29;20053;-73
2023/07/19 10:58:01;;;;;;;14.18;6.88;;;;;;;;;;4850244;29;20064;-71
2023/07/19 11:01:41;;;;;;;19.27;7.47;;;;;;;;;;4851528;29;20053;-73
2023/07/19 11:05:21;;;;;;;21.95;6.88;;;;;;;;;;4844762;29;20041;-73
2023/07/19 11:09:02;;;;;;;22.98;7.13;;;;;;;;;;4848644;29;20073;-74
2023/07/19 11:12:42;;;;;;;17.65;6.85;;;;;;;;;;4848397;29;20418;-73
2023/07/19 11:16:24;;;;;;;17.52;6.65;;;;;;;;;;4854300;29;20714;-72
2023/07/19 11:20:12;;;;;;;19.85;6.30;;;;;;;;;;4850193;29;20057;-72
2023/07/19 11:23:51;;;;;;;16.90;5.30;;;;;;;;;;4842204;29;20054;-71
2023/07/19 11:27:32;;;;;;;19.88;5.72;;;;;;;;;;4841961;29;20048;-73
2023/07/19 11:31:15;;;;;;;16.02;5.53;;;;;;;;;;4852367;29;20049;-74
2023/07/19 11:34:56;;;;;;;24.70;6.22;;;;;;;;;;4847377;29;20479;-74
2023/07/19 11:38:36;;;;;;;15.50;5.82;;;;;;;;;;4854978;29;20041;-74
2023/07/19 11:42:17;;;;;;;21.20;5.65;;;;;;;;;;4851389;29;20661;-72
2023/07/19 11:45:57;;;;;;;21.08;6.43;;;;;;;;;;4843808;29;20097;-72
2023/07/19 11:49:38;;;;;;;19.73;5.60;;;;;;;;;;4846202;29;20134;-70
2023/07/19 11:53:21;;;;;;;19.95;6.30;;;;;;;;;;4853241;29;20112;-72
2023/07/19 11:57:01;;;;;;;19.77;6.05;;;;;;;;;;4844967;29;20129;-70
2023/07/19 12:00:42;;;;;;;17.50;6.15;;;;;;;;;;4811657;29;20449;-71
2023/07/19 12:04:22;;;;;;;17.67;5.80;;;;;;;;;;4813362;29;20145;-75
2023/07/19 12:08:02;;;;;;;26.33;6.20;;;;;;;;;;4814316;29;20070;-74
2023/07/19 12:11:45;;;;;;;18.48;5.80;;;;;;;;;;4811546;29;20084;-73
2023/07/19 12:15:26;;;;;;;14.95;5.57;;;;;;;;;;4813134;29;20050;-74
2023/07/19 12:19:09;;;;;;;18.48;5.40;;;;;;;;;;4812677;29;20081;-73
2023/07/19 12:22:47;;;;;;;22.98;6.03;;;;;;;;;;4809670;29;20527;-74
2023/07/19 12:26:27;;;;;;;14.45;5.78;;;;;;;;;;4813042;29;20056;-74
2023/07/19 12:30:09;;;;;;;19.73;6.35;;;;;;;;;;4823805;29;20429;-74
2023/07/19 12:33:49;;;;;;;19.00;5.80;;;;;;;;;;4821693;29;20038;-72
2023/07/19 12:37:28;;;;;;;18.45;5.70;;;;;;;;;;4812426;29;20576;-74
2023/07/19 12:41:09;;;;;;;14.75;5.43;;;;;;;;;;4812294;29;20057;-72
2023/07/19 12:44:50;;;;;;;21.38;5.50;;;;;;;;;;4811012;29;20046;-71
2023/07/19 12:48:30;;;;;;;16.92;5.72;;;;;;;;;;4820588;29;20527;-72
2023/07/19 12:52:11;;;;;;;20.42;5.53;;;;;;;;;;4818511;29;20058;-73
2023/07/19 12:55:53;;;;;;;13.68;4.97;;;;;;;;;;4811276;29;20535;-74
2023/07/19 12:59:32;;;;;;;12.50;5.25;;;;;;;;;;4830232;29;20050;-73
2023/07/19 13:03:12;;;;;;;19.52;5.53;;;;;;;;;;4825633;29;20089;-73
2023/07/19 13:06:57;;;;;;;18.63;5.13;;;;;;;;;;4832737;29;20072;-75
2023/07/19 13:10:36;;;;;;;26.70;5.72;;;;;;;;;;4823352;29;20134;-73
2023/07/19 13:14:16;;;;;;;22.30;5.20;;;;;;;;;;4828333;29;20514;-74
2023/07/19 13:17:56;;;;;;;20.80;5.53;;;;;;;;;;4825855;29;20054;-71
2023/07/19 13:21:38;;;;;;;20.27;4.80;;;;;;;;;;4823854;29;20126;-72
2023/07/19 13:25:18;;;;;;;16.38;5.63;;;;;;;;;;4829732;29;20069;-72
2023/07/19 13:28:59;;;;;;;12.27;4.78;;;;;;;;;;4824600;29;20054;-74
2023/07/19 13:32:39;;;;;;;19.00;5.40;;;;;;;;;;4822962;29;20088;-73
2023/07/19 13:36:19;;;;;;;16.63;5.22;;;;;;;;;;4825543;29;20121;-72
2023/07/19 13:39:59;;;;;;;15.98;5.53;;;;;;;;;;4836911;29;20538;-74
2023/07/19 13:43:40;;;;;;;19.17;5.07;;;;;;;;;;4820961;29;20110;-75
2023/07/19 13:47:20;;;;;;;16.95;4.90;;;;;;;;;;4832565;29;20496;-75
2023/07/19 13:51:03;;;;;;;19.40;4.43;;;;;;;;;;4825701;29;20050;-73
2023/07/19 13:54:41;;;;;;;17.73;4.97;;;;;;;;;;4829580;29;20046;-72
2023/07/19 13:58:22;;;;;;;16.75;4.75;;;;;;;;;;4840175;29;20054;-74
2023/07/19 14:02:03;;;;;;;16.52;4.90;;;;;;;;;;4837571;29;20460;-75
2023/07/19 14:05:43;;;;;;;15.45;4.43;;;;;;;;;;4848541;29;20042;-73
2023/07/19 14:09:23;;;;;;;19.35;4.97;;;;;;;;;;4852816;29;20118;-73
2023/07/19 14:13:03;;;;;;;18.70;5.32;;;;;;;;;;4845255;29;20582;-73
2023/07/19 14:16:44;;;;;;;13.70;5.00;;;;;;;;;;4865883;29;20088;-75
2023/07/19 14:20:24;;;;;;;12.07;4.55;;;;;;;;;;4849091;29;20079;-74
2023/07/19 14:24:05;;;;;;;12.02;4.45;;;;;;;;;;4847020;29;20057;-74
2023/07/19 14:27:47;;;;;;;11.85;4.40;;;;;;;;;;4847522;29;20053;-74
2023/07/19 14:31:26;;;;;;;17.23;5.22;;;;;;;;;;4840208;29;20050;-73
2023/07/19 14:35:06;;;;;;;20.90;4.68;;;;;;;;;;4853649;29;20053;-75
2023/07/19 14:38:46;;;;;;;18.63;4.60;;;;;;;;;;4854329;29;20049;-73
2023/07/19 14:42:28;;;;;;;18.05;4.85;;;;;;;;;;4851164;29;20054;-72
2023/07/19 14:46:08;;;;;;;17.42;5.05;;;;;;;;;;4841973;29;20050;-75
2023/07/19 14:49:49;;;;;;;17.83;4.65;;;;;;;;;;4846765;29;20056;-74
2023/07/19 14:53:29;;;;;;;11.40;4.50;;;;;;;;;;4855565;29;20049;-71
2023/07/19 14:57:09;;;;;;;22.27;4.60;;;;;;;;;;4854885;29;20137;-74
2023/07/19 15:00:50;;;;;;;16.38;5.00;;;;;;;;;;4843874;29;20521;-74
2023/07/19 15:04:30;;;;;;;15.98;4.63;;;;;;;;;;4843021;29;20045;-73
2023/07/19 15:08:10;;;;;;;16.33;4.50;;;;;;;;;;4850481;29;20498;-74
2023/07/19 15:11:51;;;;;;;16.20;4.55;;;;;;;;;;4850607;29;20056;-73
2023/07/19 15:15:31;;;;;;;15.13;4.65;;;;;;;;;;4848795;29;20053;-75
2023/07/19 15:19:11;;;;;;;15.38;4.65;;;;;;;;;;4846424;29;20050;-74
2023/07/19 15:22:51;;;;;;;16.10;4.78;;;;;;;;;;4855664;29;20113;-73
2023/07/19 15:26:33;;;;;;;16.48;4.70;;;;;;;;;;4847774;29;20121;-75
2023/07/19 15:30:12;;;;;;;19.17;4.57;;;;;;;;;;4846289;29;20069;-72
2023/07/19 15:33:53;;;;;;;16.38;4.63;;;;;;;;;;4846069;29;20053;-75
2023/07/19 15:37:33;;;;;;;13.52;3.95;;;;;;;;;;4849616;29;20058;-73
2023/07/19 15:41:13;;;;;;;16.45;4.78;;;;;;;;;;4846167;29;20088;-75
2023/07/19 15:44:53;;;;;;;20.55;4.65;;;;;;;;;;4852095;29;20049;-75
2023/07/19 15:48:35;;;;;;;19.30;4.72;;;;;;;;;;4853674;29;20053;-71
2023/07/19 15:52:14;;;;;;;13.57;4.38;;;;;;;;;;4850823;29;20049;-74
2023/07/19 15:55:56;;;;;;;16.85;4.90;;;;;;;;;;4846700;29;20053;-74
2023/07/19 15:59:35;;;;;;;15.65;4.93;;;;;;;;;;4847000;29;20137;-73
2023/07/19 16:03:15;;;;;;;18.88;4.90;;;;;;;;;;4852958;29;20585;-70
2023/07/19 16:06:55;;;;;;;16.55;5.15;;;;;;;;;;4848267;29;20046;-74
2023/07/19 16:10:36;;;;;;;15.88;5.43;;;;;;;;;;4856669;29;20057;-75
2023/07/19 16:14:16;;;;;;;12.05;4.40;;;;;;;;;;4844298;29;20054;-74
2023/07/19 16:17:56;;;;;;;16.35;4.32;;;;;;;;;;4856100;29;20113;-74
2023/07/19 16:21:37;;;;;;;13.27;4.45;;;;;;;;;;4846326;29;20119;-76
2023/07/19 16:25:17;;;;;;;20.08;4.60;;;;;;;;;;4849219;29;20053;-75
2023/07/19 16:28:57;;;;;;;17.10;5.05;;;;;;;;;;4850333;29;20448;-70
2023/07/19 16:32:38;;;;;;;20.88;4.47;;;;;;;;;;4839737;29;20403;-72
2023/07/19 16:36:18;;;;;;;14.82;4.45;;;;;;;;;;4848529;29;20085;-71
2023/07/19 16:40:00;;;;;;;13.82;4.03;;;;;;;;;;4841879;29;20757;-73
2023/07/19 16:43:41;;;;;;;14.93;4.18;;;;;;;;;;4848483;29;20052;-74
2023/07/19 16:47:21;;;;;;;14.00;5.07;;;;;;;;;;4852040;29;20046;-72
2023/07/19 16:51:02;;;;;;;15.45;4.50;;;;;;;;;;4848389;29;20049;-74
2023/07/19 16:54:42;;;;;;;16.08;4.75;;;;;;;;;;4851293;29;20665;-69
2023/07/19 16:58:22;;;;;;;18.00;4.50;;;;;;;;;;4841764;29;20062;-70
2023/07/19 17:02:03;;;;;;;16.35;5.03;;;;;;;;;;4846683;29;20395;-69
2023/07/19 17:05:43;;;;;;;12.95;4.40;;;;;;;;;;4841189;29;20125;-74
2023/07/19 17:09:23;;;;;;;15.63;4.57;;;;;;;;;;4851127;29;20113;-73
2023/07/19 17:13:04;;;;;;;17.08;4.70;;;;;;;;;;4856766;29;20041;-73
2023/07/19 17:16:44;;;;;;;16.88;5.35;;;;;;;;;;4852497;29;20070;-74
2023/07/19 17:20:24;;;;;;;13.18;4.85;;;;;;;;;;4841327;29;20054;-72
2023/07/19 17:24:05;;;;;;;16.33;4.72;;;;;;;;;;4842489;29;20109;-73
2023/07/19 17:27:45;;;;;;;17.45;4.50;;;;;;;;;;4842960;29;20050;-74
2023/07/19 17:31:26;;;;;;;15.80;4.40;;;;;;;;;;4842225;29;20396;-73
2023/07/19 17:35:07;;;;;;;18.10;5.03;;;;;;;;;;4844851;29;20084;-75
2023/07/19 17:38:08;;;;;;;13.43;4.60;;;;;;;;;;4843718;29;20069;-72
2023/07/19 17:40:34;;;;;;;19.60;4.80;;;;;;;;;;4857061;29;20042;-73
2023/07/19 17:42:59;;;;;;;17.40;4.80;;;;;;;;;;4838239;29;20052;-75
2023/07/19 17:45:26;;;;;;;19.73;5.40;;;;;;;;;;4851224;29;20052;-72
2023/07/19 17:47:53;;;;;;;16.27;4.95;;;;;;;;;;4841290;29;20427;-72
2023/07/19 17:50:19;;;;;;;12.00;4.80;;;;;;;;;;4846711;29;20498;-71
2023/07/19 17:52:47;;;;;;;16.92;5.20;;;;;;;;;;4855308;29;20058;-73
2023/07/19 17:55:13;;;;;;;15.00;4.78;;;;;;;;;;4854272;29;20049;-72
2023/07/19 17:57:40;;;;;;;19.10;5.38;;;;;;;;;;4845296;29;20467;-73
2023/07/19 18:00:07;;;;;;;14.82;4.72;;;;;;;;;;4849780;29;20309;-74
2023/07/19 18:02:33;;;;;;;16.70;5.13;;;;;;;;;;4842035;29;20410;-73
2023/07/19 18:04:59;;;;;;;22.17;5.55;;;;;;;;;;4846615;29;20473;-75
2023/07/19 18:07:27;;;;;;;15.63;5.25;;;;;;;;;;4855494;29;20425;-72
2023/07/19 18:09:53;;;;;;;16.48;5.35;;;;;;;;;;4852614;29;20053;-72
2023/07/19 18:12:19;;;;;;;15.63;5.35;;;;;;;;;;4854737;29;20513;-72
2023/07/19 18:14:45;;;;;;;18.67;5.78;;;;;;;;;;4848069;29;20050;-72
2023/07/19 18:17:11;;;;;;;17.80;6.10;;;;;;;;;;4844835;29;20049;-72
2023/07/19 18:19:37;;;;;;;22.92;6.13;;;;;;;;;;4846872;29;20062;-72
2023/07/19 18:22:03;;;;;;;15.38;5.63;;;;;;;;;;4845843;29;20113;-70
2023/07/19 18:24:30;;;;;;;17.48;5.60;;;;;;;;;;4851478;29;20061;-73
2023/07/19 18:26:56;;;;;;;17.83;5.57;;;;;;;;;;4844117;29;20049;-71
2023/07/19 18:29:25;;;;;;;19.38;6.13;;;;;;;;;;4851971;29;20061;-72
2023/07/19 18:31:52;;;;;;;25.70;5.53;;;;;;;;;;4847217;29;20109;-71
2023/07/19 18:34:20;;;;;;;22.73;6.20;;;;;;;;;;4840074;29;21049;-63
2023/07/19 18:36:48;;;;;;;19.25;6.43;;;;;;;;;;4846755;29;20133;-73
2023/07/19 18:39:57;;;;;;;20.85;6.30;;;;;;;;;;4843604;29;20065;-72
2023/07/19 18:43:38;;;;;;;14.27;5.90;;;;;;;;;;4839759;29;20052;-72
2023/07/19 18:47:18;;;;;;;23.23;6.95;;;;;;;;;;4842428;29;20061;-73
2023/07/19 18:50:59;;;;;;;22.05;6.90;;;;;;;;;;4845188;29;20053;-74
2023/07/19 18:54:39;;;;;;;16.52;5.93;;;;;;;;;;4847409;29;20410;-75
2023/07/19 18:58:19;;;;;;;22.80;6.70;;;;;;;;;;4846428;29;20054;-72
2023/07/19 19:02:00;;;;;;;18.85;7.03;;;;;;;;;;4845346;29;20120;-76
2023/07/19 19:05:42;;;;;;;20.67;6.82;;;;;;;;;;4837027;29;20575;-77
2023/07/19 19:09:23;;;;;;;17.55;7.00;;;;;;;;;;4850149;29;20060;-72
2023/07/19 19:13:04;;;;;;;15.93;6.97;;;;;;;;;;4844538;29;20538;-72
2023/07/19 19:16:44;;;;;;;20.83;6.93;;;;;;;;;;4851877;29;20058;-75
2023/07/19 19:20:40;;;;;;;15.82;6.40;;;;;;;;;;4847887;29;20125;-72
2023/07/19 19:24:21;;;;;;;20.05;7.57;;;;;;;;;;4847527;29;20049;-74
2023/07/19 19:28:02;;;;;;;25.17;7.30;;;;;;;;;;4846913;29;20079;-74
2023/07/19 19:31:27;;;;;;;11.73;6.10;;;;;;;;;;4840641;29;20430;-71
2023/07/19 19:35:07;;;;;;;21.67;6.78;;;;;;;;;;4841621;29;20061;-71
2023/07/19 19:38:47;;;;;;;21.40;8.00;;;;;;;;;;4841878;29;20053;-69
2023/07/19 19:42:29;;;;;;;26.20;7.65;;;;;;;;;;4847183;29;20076;-68
2023/07/19 19:45:45;;;;;;;16.70;7.00;;;;;;;;;;4838930;29;20157;-68
2023/07/19 19:48:51;;;;;;;20.90;7.40;;;;;;;;;;4841986;29;20132;-71
2023/07/19 19:52:32;;;;;;;19.95;6.85;;;;;;;;;;4843966;29;20049;-71
2023/07/19 19:56:12;;;;;;;20.05;7.07;;;;;;;;;;4838830;29;20049;-72
2023/07/19 19:59:52;;;;;;;18.38;7.28;;;;;;;;;;4845303;29;20065;-72
2023/07/19 20:03:33;;;;;;;18.50;7.00;;;;;;;;;;4844852;29;20474;-69
2023/07/19 20:07:13;;;;;;;20.70;7.72;;;;;;;;;;4839075;29;20052;-70
2023/07/19 20:10:55;;;;;;;16.95;7.32;;;;;;;;;;4840968;29;20510;-72
2023/07/19 20:14:34;;;;;;;24.05;8.15;;;;;;;;;;4840882;29;20498;-76
2023/07/19 20:18:14;;;;;;;24.10;7.90;;;;;;;;;;4839375;29;20140;-73
2023/07/19 20:21:19;;;;;;;19.27;7.05;;;;;;;;;;4840011;29;20089;-74
2023/07/19 20:24:25;;;;;;;18.10;7.05;;;;;;;;;;4847981;29;20058;-74